createdAt,value
2023-06-27T00:00:00.671Z,14.92
2023-06-27T00:02:28.623Z,14.88
2023-06-27T00:04:57.405Z,14.86
2023-06-27T00:07:29.049Z,14.78
2023-06-27T00:09:57.146Z,14.71
2023-06-27T00:12:25.061Z,14.65
2023-06-27T00:14:53.021Z,14.59
2023-06-27T00:17:24.146Z,14.54
2023-06-27T00:19:59.039Z,14.47
2023-06-27T00:22:27.418Z,14.45
2023-06-27T00:24:55.933Z,14.40
2023-06-27T00:27:24.304Z,14.32
2023-06-27T00:29:52.208Z,14.27
2023-06-27T00:32:20.053Z,14.19
2023-06-27T00:34:49.812Z,14.15
2023-06-27T00:37:17.632Z,14.13
2023-06-27T00:39:45.443Z,14.09
2023-06-27T00:42:13.248Z,14.06
2023-06-27T00:44:41.123Z,14.04
2023-06-27T00:47:09.920Z,13.99
2023-06-27T00:49:37.916Z,13.95
2023-06-27T00:52:09.250Z,13.94
2023-06-27T00:54:37.379Z,13.96
2023-06-27T00:57:05.333Z,13.98
2023-06-27T00:59:34.353Z,14.05
2023-06-27T01:02:02.134Z,14.07
2023-06-27T01:04:29.922Z,14.09
2023-06-27T01:07:03.511Z,14.05
2023-06-27T01:09:38.950Z,14.04
2023-06-27T01:12:15.289Z,14.08
2023-06-27T01:14:46.453Z,14.36
2023-06-27T01:17:15.977Z,14.59
2023-06-27T01:19:45.543Z,14.69
2023-06-27T01:22:18.244Z,14.64
2023-06-27T01:24:48.656Z,14.63
2023-06-27T01:27:16.831Z,14.57
2023-06-27T01:29:44.802Z,14.54
2023-06-27T01:32:19.480Z,14.57
2023-06-27T01:34:54.252Z,14.59
2023-06-27T01:37:25.729Z,14.67
2023-06-27T01:39:59.578Z,14.64
2023-06-27T01:42:32.460Z,14.66
2023-06-27T01:45:01.486Z,14.67
2023-06-27T01:47:31.641Z,14.64
2023-06-27T01:49:59.536Z,14.62
2023-06-27T01:52:27.399Z,14.57
2023-06-27T01:54:57.172Z,14.53
2023-06-27T01:57:24.938Z,14.48
2023-06-27T01:59:53.445Z,14.50
2023-06-27T02:02:21.538Z,14.49
2023-06-27T02:04:49.381Z,14.50
2023-06-27T02:07:17.236Z,14.54
2023-06-27T02:09:45.049Z,14.55
2023-06-27T02:12:14.169Z,14.67
2023-06-27T02:14:42.016Z,14.77
2023-06-27T02:17:10.574Z,14.80
2023-06-27T02:19:38.341Z,14.87
2023-06-27T02:22:06.758Z,14.93
2023-06-27T02:24:34.539Z,15.17
2023-06-27T02:27:02.515Z,15.16
2023-06-27T02:29:32.446Z,15.16
2023-06-27T02:32:00.548Z,15.18
2023-06-27T02:34:29.269Z,15.19
2023-06-27T02:36:57.053Z,15.27
2023-06-27T02:39:24.859Z,15.32
2023-06-27T02:41:52.608Z,15.41
2023-06-27T02:44:20.529Z,15.47
2023-06-27T02:46:49.782Z,15.58
2023-06-27T02:49:17.715Z,15.70
2023-06-27T02:51:45.565Z,15.80
2023-06-27T02:54:13.359Z,15.86
2023-06-27T02:56:41.190Z,15.86
2023-06-27T02:59:09.611Z,15.96
2023-06-27T03:01:37.419Z,16.07
2023-06-27T03:04:18.443Z,16.21
2023-06-27T03:06:46.748Z,16.34
2023-06-27T03:09:14.739Z,16.34
2023-06-27T03:11:42.777Z,16.41
2023-06-27T03:14:10.558Z,16.47
2023-06-27T03:16:38.524Z,16.61
2023-06-27T03:19:07.634Z,16.67
2023-06-27T03:21:35.920Z,16.68
2023-06-27T03:24:03.779Z,16.76
2023-06-27T03:26:31.528Z,16.85
2023-06-27T03:28:59.320Z,16.95
2023-06-27T03:31:27.249Z,17.02
2023-06-27T03:33:58.040Z,17.06
2023-06-27T03:36:27.402Z,17.20
2023-06-27T03:38:55.230Z,17.24
2023-06-27T03:41:23.338Z,17.29
2023-06-27T03:43:51.337Z,17.47
2023-06-27T03:46:19.088Z,17.52
2023-06-27T03:48:48.346Z,17.63
2023-06-27T03:51:16.301Z,17.77
2023-06-27T03:53:45.594Z,17.98
2023-06-27T03:56:13.604Z,17.94
2023-06-27T03:58:41.324Z,18.23
2023-06-27T04:01:09.095Z,18.31
2023-06-27T04:03:37.040Z,18.48
2023-06-27T04:06:05.093Z,18.67
2023-06-27T04:08:32.928Z,18.80
2023-06-27T04:11:02.094Z,18.96
2023-06-27T04:13:29.873Z,19.08
2023-06-27T04:15:57.711Z,19.19
2023-06-27T04:18:25.552Z,19.27
2023-06-27T04:20:53.295Z,19.36
2023-06-27T04:23:21.156Z,19.45
2023-06-27T04:26:05.373Z,19.64
2023-06-27T04:28:33.508Z,19.75
2023-06-27T04:31:02.455Z,19.80
2023-06-27T04:33:30.945Z,19.87
2023-06-27T04:36:02.651Z,20.00
2023-06-27T04:38:31.336Z,20.02
2023-06-27T04:40:59.902Z,19.94
2023-06-27T04:43:29.105Z,20.04
2023-06-27T04:45:56.948Z,20.23
2023-06-27T04:48:24.753Z,20.38
2023-06-27T04:50:53.334Z,20.42
2023-06-27T04:53:21.177Z,20.54
2023-06-27T04:55:49.168Z,20.57
2023-06-27T04:58:17.348Z,20.70
2023-06-27T05:00:48.296Z,20.78
2023-06-27T05:03:16.396Z,20.95
2023-06-27T05:05:44.764Z,20.98
2023-06-27T05:08:12.817Z,21.08
2023-06-27T05:10:40.615Z,21.24
2023-06-27T05:13:08.354Z,21.41
2023-06-27T05:15:36.166Z,21.55
2023-06-27T05:18:27.888Z,21.74
2023-06-27T05:20:56.885Z,21.84
2023-06-27T05:23:24.988Z,21.93
2023-06-27T05:25:52.812Z,21.80
2023-06-27T05:28:20.905Z,21.69
2023-06-27T05:30:48.886Z,21.70
2023-06-27T05:33:16.903Z,21.72
2023-06-27T05:35:46.117Z,21.89
2023-06-27T05:38:13.952Z,21.98
2023-06-27T05:40:41.744Z,22.18
2023-06-27T05:43:09.689Z,22.12
2023-06-27T05:45:38.446Z,22.16
2023-06-27T05:48:07.099Z,22.24
2023-06-27T05:50:35.180Z,22.33
2023-06-27T05:53:04.527Z,22.29
2023-06-27T05:55:32.892Z,22.25
2023-06-27T05:58:00.673Z,22.34
2023-06-27T06:00:28.863Z,22.09
2023-06-27T06:02:56.741Z,22.07
2023-06-27T06:05:24.671Z,22.11
2023-06-27T06:07:52.667Z,22.08
2023-06-27T06:10:23.124Z,22.14
2023-06-27T06:12:51.098Z,22.45
2023-06-27T06:15:19.313Z,22.55
2023-06-27T06:17:47.467Z,22.71
2023-06-27T06:20:15.761Z,22.88
2023-06-27T06:22:43.948Z,22.94
2023-06-27T06:25:11.779Z,22.83
2023-06-27T06:27:40.937Z,22.91
2023-06-27T06:30:10.467Z,22.89
2023-06-27T06:32:38.457Z,23.13
2023-06-27T06:35:07.465Z,22.97
2023-06-27T06:37:35.545Z,23.09
2023-06-27T06:40:03.452Z,23.24
2023-06-27T06:42:31.731Z,23.42
2023-06-27T06:45:00.914Z,23.64
2023-06-27T06:47:28.959Z,23.56
2023-06-27T06:49:56.924Z,23.61
2023-06-27T06:52:24.666Z,23.75
2023-06-27T06:54:52.528Z,23.85
2023-06-27T06:57:20.385Z,23.96
2023-06-27T06:59:48.646Z,23.88
2023-06-27T07:02:17.994Z,23.97
2023-06-27T07:04:45.850Z,24.14
2023-06-27T07:07:13.738Z,24.27
2023-06-27T07:09:42.289Z,24.45
2023-06-27T07:12:10.741Z,24.11
2023-06-27T07:14:38.516Z,24.00
2023-06-27T07:17:06.916Z,23.68
2023-06-27T07:19:36.103Z,23.38
2023-06-27T07:22:03.943Z,23.60
2023-06-27T07:24:32.028Z,23.83
2023-06-27T07:26:59.780Z,24.05
2023-06-27T07:29:27.569Z,24.31
2023-06-27T07:31:56.081Z,24.49
2023-06-27T07:34:23.931Z,24.16
2023-06-27T07:36:53.077Z,23.67
2023-06-27T07:41:51.279Z,23.75
2023-06-27T07:44:19.187Z,23.97
2023-06-27T07:46:47.178Z,24.24
2023-06-27T07:49:16.785Z,24.06
2023-06-27T07:51:47.173Z,24.22
2023-06-27T07:54:16.415Z,24.38
2023-06-27T07:56:44.550Z,24.17
2023-06-27T07:59:14.174Z,24.22
2023-06-27T08:01:42.893Z,24.15
2023-06-27T08:04:10.992Z,24.29
2023-06-27T08:06:38.911Z,24.31
2023-06-27T08:09:07.020Z,24.37
2023-06-27T08:11:36.403Z,24.72
2023-06-27T08:14:04.243Z,25.18
2023-06-27T08:16:32.081Z,25.51
2023-06-27T08:19:00.037Z,25.83
2023-06-27T08:21:28.014Z,25.72
2023-06-27T08:23:55.817Z,25.67
2023-06-27T08:26:23.853Z,25.79
2023-06-27T08:28:53.817Z,26.20
2023-06-27T08:31:21.667Z,26.44
2023-06-27T08:33:49.618Z,26.21
2023-06-27T08:36:17.446Z,26.09
2023-06-27T08:38:45.347Z,26.33
2023-06-27T08:41:15.084Z,26.75
2023-06-27T08:43:42.977Z,26.75
2023-06-27T08:46:12.757Z,26.63
2023-06-27T08:48:42.901Z,26.12
2023-06-27T08:51:14.922Z,25.90
2023-06-27T08:53:45.510Z,26.14
2023-06-27T08:56:16.615Z,26.38
2023-06-27T08:58:47.449Z,26.71
2023-06-27T09:01:16.737Z,26.91
2023-06-27T09:03:44.706Z,26.85
2023-06-27T09:06:14.269Z,27.30
2023-06-27T09:08:43.411Z,27.27
2023-06-27T09:11:11.524Z,27.13
2023-06-27T09:13:39.902Z,27.52
2023-06-27T09:16:09.086Z,27.52
2023-06-27T09:18:39.528Z,27.60
2023-06-27T09:21:08.191Z,28.15
2023-06-27T09:23:36.316Z,28.59
2023-06-27T09:26:08.071Z,29.24
2023-06-27T09:28:46.124Z,29.45
2023-06-27T09:31:15.267Z,29.42
2023-06-27T09:33:46.638Z,29.85
2023-06-27T09:39:04.876Z,30.47
2023-06-27T09:41:45.730Z,30.68
2023-06-27T09:44:15.027Z,30.72
2023-06-27T09:46:44.102Z,31.04
2023-06-27T09:49:13.359Z,31.89
2023-06-27T09:51:41.410Z,32.43
2023-06-27T09:54:09.235Z,31.92
2023-06-27T09:56:37.119Z,31.99
2023-06-27T09:59:17.689Z,32.51
2023-06-27T10:01:50.548Z,33.45
2023-06-27T10:04:19.819Z,34.53
2023-06-27T10:06:47.930Z,34.42
2023-06-27T10:09:16.093Z,34.77
2023-06-27T10:11:44.585Z,35.03
2023-06-27T10:14:12.412Z,34.63
2023-06-27T10:16:41.525Z,35.42
2023-06-27T10:19:09.758Z,35.35
2023-06-27T10:21:39.138Z,35.79
2023-06-27T10:24:09.024Z,35.87
2023-06-27T10:26:37.040Z,35.50
2023-06-27T10:29:15.323Z,35.74
2023-06-27T10:31:47.426Z,36.39
2023-06-27T10:34:20.382Z,35.97
2023-06-27T10:37:00.100Z,35.83
2023-06-27T10:39:32.653Z,36.16
2023-06-27T10:42:04.980Z,36.30
2023-06-27T10:44:33.708Z,36.67
2023-06-27T10:47:31.220Z,37.84
2023-06-27T10:50:13.407Z,37.18
2023-06-27T10:53:00.269Z,37.61
2023-06-27T10:55:31.566Z,36.96
2023-06-27T10:58:07.859Z,37.47
2023-06-27T11:00:36.821Z,37.59
2023-06-27T11:03:07.437Z,37.83
2023-06-27T11:05:44.682Z,38.20
2023-06-27T11:08:16.521Z,38.30
2023-06-27T11:10:52.456Z,37.18
2023-06-27T11:13:24.100Z,37.51
2023-06-27T11:15:54.982Z,37.70
2023-06-27T11:18:26.313Z,37.70
2023-06-27T11:20:55.110Z,38.00
2023-06-27T11:23:26.255Z,38.15
2023-06-27T11:25:55.473Z,37.86
2023-06-27T11:28:25.450Z,37.86
2023-06-27T11:31:00.034Z,37.61
2023-06-27T11:33:28.339Z,38.50
2023-06-27T11:35:59.528Z,38.50
2023-06-27T11:38:29.392Z,39.11
2023-06-27T11:40:57.264Z,38.90
2023-06-27T11:43:25.122Z,38.62
2023-06-27T11:45:54.186Z,37.79
2023-06-27T11:48:22.801Z,36.61
2023-06-27T11:51:06.495Z,37.29
2023-06-27T11:53:37.942Z,36.46
2023-06-27T11:56:21.442Z,37.92
2023-06-27T11:58:51.851Z,37.68
2023-06-27T12:01:20.240Z,36.77
2023-06-27T12:03:49.037Z,36.94
2023-06-27T12:06:25.758Z,37.47
2023-06-27T12:08:55.472Z,37.78
2023-06-27T12:11:33.890Z,38.31
2023-06-27T12:14:02.104Z,38.60
2023-06-27T12:16:33.877Z,38.55
2023-06-27T12:19:06.028Z,38.72
2023-06-27T12:21:34.328Z,38.47
2023-06-27T12:24:04.129Z,38.65
2023-06-27T12:26:31.978Z,38.08
2023-06-27T12:29:01.559Z,38.03
2023-06-27T12:31:29.791Z,37.95
2023-06-27T12:34:00.150Z,37.82
2023-06-27T12:36:28.993Z,37.75
2023-06-27T12:38:56.944Z,37.78
2023-06-27T12:41:27.389Z,38.21
2023-06-27T12:43:55.399Z,37.54
2023-06-27T12:46:23.314Z,37.45
2023-06-27T12:48:51.191Z,37.80
2023-06-27T12:51:20.897Z,36.85
2023-06-27T12:53:49.456Z,36.63
2023-06-27T12:56:18.129Z,37.02
2023-06-27T12:58:48.780Z,37.21
2023-06-27T13:01:18.287Z,36.28
2023-06-27T13:03:46.785Z,36.70
2023-06-27T13:06:14.683Z,37.35
2023-06-27T13:08:42.570Z,37.25
2023-06-27T13:11:10.410Z,37.21
2023-06-27T13:13:38.160Z,37.50
2023-06-27T13:16:15.920Z,37.56
2023-06-27T13:18:46.808Z,37.85
2023-06-27T13:21:14.924Z,37.74
2023-06-27T13:23:42.929Z,38.42
2023-06-27T13:26:10.877Z,37.15
2023-06-27T13:28:38.764Z,37.21
2023-06-27T13:31:08.112Z,36.64
2023-06-27T13:33:35.965Z,36.98
2023-06-27T13:36:03.894Z,36.97
2023-06-27T13:38:32.524Z,36.23
2023-06-27T13:41:00.349Z,36.56
2023-06-27T13:43:28.198Z,37.21
2023-06-27T13:45:56.012Z,37.02
2023-06-27T13:48:25.521Z,37.57
2023-06-27T13:50:54.762Z,36.94
2023-06-27T13:53:23.104Z,37.35
2023-06-27T13:55:51.374Z,37.81
2023-06-27T13:58:19.963Z,37.58
2023-06-27T14:00:49.883Z,37.50
2023-06-27T14:03:20.545Z,37.07
2023-06-27T14:05:50.221Z,37.12
2023-06-27T14:08:18.406Z,37.21
2023-06-27T14:10:46.659Z,37.85
2023-06-27T14:13:14.582Z,37.36
2023-06-27T14:15:42.443Z,37.79
2023-06-27T14:18:10.340Z,37.30
2023-06-27T14:20:38.371Z,37.53
2023-06-27T14:23:07.691Z,37.98
2023-06-27T14:25:35.504Z,38.26
2023-06-27T14:28:04.660Z,37.16
2023-06-27T14:30:33.223Z,37.65
2023-06-27T14:33:01.103Z,37.62
2023-06-27T14:35:28.950Z,38.15
2023-06-27T14:37:56.799Z,37.85
2023-06-27T14:40:26.384Z,37.78
2023-06-27T14:42:54.342Z,37.21
2023-06-27T14:45:22.465Z,36.98
2023-06-27T14:47:50.397Z,37.00
2023-06-27T14:50:19.233Z,36.40
2023-06-27T14:52:47.241Z,36.27
2023-06-27T14:55:15.211Z,35.80
2023-06-27T14:57:44.407Z,35.94
2023-06-27T15:00:17.082Z,36.36
2023-06-27T15:02:45.688Z,35.67
2023-06-27T15:05:14.436Z,35.73
2023-06-27T15:07:42.710Z,35.70
2023-06-27T15:10:11.150Z,36.20
2023-06-27T15:12:38.992Z,36.51
2023-06-27T15:15:09.807Z,36.41
2023-06-27T15:17:38.026Z,36.23
2023-06-27T15:20:07.425Z,35.97
2023-06-27T15:22:35.226Z,36.19
2023-06-27T15:25:03.523Z,36.28
2023-06-27T15:27:31.480Z,36.00
2023-06-27T15:29:59.236Z,36.30
2023-06-27T15:32:28.453Z,36.32
2023-06-27T15:34:56.189Z,35.27
2023-06-27T15:37:24.010Z,35.84
2023-06-27T15:39:54.843Z,36.05
2023-06-27T15:42:23.314Z,35.65
2023-06-27T15:44:51.274Z,36.17
2023-06-27T15:47:19.574Z,35.35
2023-06-27T15:49:49.523Z,35.18
2023-06-27T15:52:17.308Z,35.36
2023-06-27T15:54:45.063Z,35.23
2023-06-27T15:57:12.837Z,34.87
2023-06-27T15:59:40.673Z,34.25
2023-06-27T16:02:08.422Z,33.54
2023-06-27T16:04:36.871Z,33.52
2023-06-27T16:07:06.593Z,32.72
2023-06-27T16:09:35.306Z,32.84
2023-06-27T16:12:03.285Z,32.88
2023-06-27T16:14:31.070Z,32.60
2023-06-27T16:16:58.887Z,32.25
2023-06-27T16:19:26.728Z,31.40
2023-06-27T16:21:54.762Z,30.80
2023-06-27T16:24:23.868Z,30.23
2023-06-27T16:26:51.639Z,29.78
2023-06-27T16:29:20.361Z,28.66
2023-06-27T16:31:48.377Z,28.13
2023-06-27T16:34:16.385Z,27.93
2023-06-27T16:36:44.321Z,27.33
2023-06-27T16:39:12.139Z,26.69
2023-06-27T16:41:41.327Z,26.36
2023-06-27T16:44:11.693Z,25.82
2023-06-27T16:46:40.070Z,25.32
2023-06-27T16:49:07.946Z,25.29
2023-06-27T16:51:35.960Z,25.22
2023-06-27T16:54:03.738Z,25.06
2023-06-27T16:56:31.546Z,24.98
2023-06-27T16:59:00.787Z,24.97
2023-06-27T17:01:28.771Z,24.88
2023-06-27T17:03:56.593Z,24.82
2023-06-27T17:06:25.352Z,24.77
2023-06-27T17:08:53.167Z,24.74
2023-06-27T17:11:20.964Z,24.63
2023-06-27T17:13:49.483Z,24.50
2023-06-27T17:16:18.801Z,24.25
2023-06-27T17:18:46.589Z,24.22
2023-06-27T17:24:32.697Z,23.95
2023-06-27T17:27:00.603Z,23.95
2023-06-27T17:29:28.378Z,23.87
2023-06-27T17:31:57.542Z,23.84
2023-06-27T17:34:25.299Z,23.76
2023-06-27T17:36:53.105Z,23.77
2023-06-27T17:39:23.535Z,23.64
2023-06-27T17:41:52.716Z,23.58
2023-06-27T17:44:20.643Z,23.50
2023-06-27T17:46:48.456Z,23.42
2023-06-27T17:49:17.653Z,23.35
2023-06-27T17:51:45.522Z,23.23
2023-06-27T17:54:13.368Z,23.05
2023-06-27T17:56:41.152Z,23.01
2023-06-27T17:59:08.940Z,22.95
2023-06-27T18:01:37.237Z,22.88
2023-06-27T18:04:05.706Z,22.88
2023-06-27T18:06:34.834Z,22.82
2023-06-27T18:09:02.950Z,22.76
2023-06-27T18:11:30.969Z,22.70
2023-06-27T18:13:58.800Z,22.68
2023-06-27T18:16:26.613Z,22.66
2023-06-27T18:18:54.358Z,22.66
2023-06-27T18:21:22.115Z,22.57
2023-06-27T18:23:51.298Z,22.45
2023-06-27T18:26:19.063Z,22.36
2023-06-27T18:28:46.966Z,22.26
2023-06-27T18:31:16.221Z,22.17
2023-06-27T18:33:45.438Z,22.09
2023-06-27T18:36:13.363Z,22.03
2023-06-27T18:38:42.581Z,21.97
2023-06-27T18:41:11.767Z,21.87
2023-06-27T18:43:39.840Z,21.93
2023-06-27T18:46:07.681Z,21.87
2023-06-27T18:48:36.313Z,21.72
2023-06-27T18:51:04.424Z,21.71
2023-06-27T18:53:32.288Z,21.60
2023-06-27T18:56:00.186Z,21.59
2023-06-27T18:58:29.410Z,21.57
2023-06-27T19:00:57.290Z,21.46
2023-06-27T19:03:25.839Z,21.31
2023-06-27T19:05:54.343Z,21.28
2023-06-27T19:08:22.257Z,21.21
2023-06-27T19:10:49.985Z,21.04
2023-06-27T19:13:18.757Z,20.95
2023-06-27T19:15:48.432Z,20.87
2023-06-27T19:18:16.681Z,20.79
2023-06-27T19:20:45.397Z,20.70
2023-06-27T19:23:13.904Z,20.62
2023-06-27T19:25:41.668Z,20.54
2023-06-27T19:28:09.430Z,20.49
2023-06-27T19:30:37.832Z,20.42
2023-06-27T19:33:07.044Z,20.33
2023-06-27T19:35:35.915Z,20.22
2023-06-27T19:38:03.953Z,20.10
2023-06-27T19:40:31.823Z,19.93
2023-06-27T19:43:00.440Z,19.76
2023-06-27T19:45:28.440Z,19.59
2023-06-27T19:47:56.469Z,19.39
2023-06-27T19:50:25.766Z,19.25
2023-06-27T19:52:53.689Z,19.12
2023-06-27T19:55:22.182Z,18.98
2023-06-27T19:57:49.996Z,18.82
2023-06-27T20:00:18.948Z,18.70
2023-06-27T20:02:46.777Z,18.58
2023-06-27T20:05:14.645Z,18.42
2023-06-27T20:07:43.904Z,18.33
2023-06-27T20:10:12.956Z,18.21
2023-06-27T20:12:41.113Z,18.09
2023-06-27T20:15:10.348Z,17.99
2023-06-27T20:17:38.212Z,17.87
2023-06-27T20:20:08.017Z,17.76
2023-06-27T20:22:35.964Z,17.68
2023-06-27T20:25:05.585Z,17.53
2023-06-27T20:27:33.399Z,17.46
2023-06-27T20:30:01.248Z,17.35
2023-06-27T20:32:29.124Z,17.30
2023-06-27T20:34:56.976Z,17.17
2023-06-27T20:37:24.799Z,17.19
2023-06-27T20:39:52.687Z,17.12
2023-06-27T20:42:21.874Z,17.03
2023-06-27T20:44:49.680Z,16.94
2023-06-27T20:47:18.237Z,16.88
2023-06-27T20:49:46.202Z,16.77
2023-06-27T20:52:14.513Z,16.77
2023-06-27T20:54:42.620Z,16.75
2023-06-27T20:57:10.428Z,16.67
2023-06-27T20:59:39.803Z,16.60
2023-06-27T21:02:08.051Z,16.50
2023-06-27T21:04:36.055Z,16.47
2023-06-27T21:07:03.854Z,16.38
2023-06-27T21:09:31.617Z,16.29
2023-06-27T21:11:59.642Z,16.22
2023-06-27T21:14:27.445Z,16.14
2023-06-27T21:17:01.281Z,16.01
2023-06-27T21:19:29.142Z,16.01
2023-06-27T21:21:58.984Z,15.92
2023-06-27T21:24:26.838Z,15.82
2023-06-27T21:26:54.646Z,15.71
2023-06-27T21:29:22.418Z,15.64
2023-06-27T21:31:50.777Z,15.58
2023-06-27T21:34:20.032Z,15.57
2023-06-27T21:36:47.864Z,15.56
2023-06-27T21:39:15.624Z,15.54
2023-06-27T21:41:43.359Z,15.41
2023-06-27T21:44:11.248Z,15.44
2023-06-27T21:46:39.093Z,15.26
2023-06-27T21:49:08.587Z,15.29
2023-06-27T21:51:37.975Z,15.22
2023-06-27T21:54:05.883Z,15.22
2023-06-27T21:56:33.700Z,15.16
2023-06-27T21:59:01.482Z,15.15
2023-06-27T22:01:29.431Z,15.12
2023-06-27T22:03:57.300Z,15.05
2023-06-27T22:06:38.456Z,14.98
2023-06-27T22:09:07.961Z,14.93
2023-06-27T22:11:35.740Z,14.86
2023-06-27T22:14:03.567Z,14.80
2023-06-27T22:16:31.516Z,14.76
2023-06-27T22:18:59.466Z,14.74
2023-06-27T22:21:27.223Z,14.73
2023-06-27T22:23:55.078Z,14.69
2023-06-27T22:26:24.376Z,14.61
2023-06-27T22:28:52.129Z,14.50
2023-06-27T22:31:20.013Z,14.49
2023-06-27T22:33:48.031Z,14.51
2023-06-27T22:36:15.898Z,14.50
2023-06-27T22:38:43.620Z,14.47
2023-06-27T22:41:11.418Z,14.40
2023-06-27T22:43:40.647Z,14.35
2023-06-27T22:46:08.374Z,14.30
2023-06-27T22:48:36.254Z,14.23
2023-06-27T22:51:04.943Z,14.28
2023-06-27T22:53:32.673Z,14.19
2023-06-27T22:56:00.516Z,14.17
2023-06-27T22:58:28.242Z,14.15
2023-06-27T23:00:57.389Z,14.11
2023-06-27T23:03:25.201Z,14.08
2023-06-27T23:05:53.002Z,13.99
2023-06-27T23:08:20.779Z,13.90
2023-06-27T23:10:48.608Z,13.82
2023-06-27T23:13:16.610Z,13.81
2023-06-27T23:15:44.586Z,13.82
2023-06-27T23:18:18.063Z,13.80
2023-06-27T23:20:46.104Z,13.77
2023-06-27T23:23:14.026Z,13.71
2023-06-27T23:25:44.567Z,13.69
2023-06-27T23:28:12.547Z,13.64
2023-06-27T23:30:40.665Z,13.65
2023-06-27T23:33:11.258Z,13.62
2023-06-27T23:35:40.401Z,13.56
2023-06-27T23:38:08.351Z,13.53
2023-06-27T23:40:36.212Z,13.50
2023-06-27T23:43:04.075Z,13.47
2023-06-27T23:45:32.015Z,13.47
2023-06-27T23:48:00.161Z,13.46
2023-06-27T23:50:28.112Z,13.49
2023-06-27T23:52:57.239Z,13.48
2023-06-27T23:55:25.028Z,13.42
2023-06-27T23:57:52.896Z,13.37
